createdAt,value
2019-03-16T00:00:30.488Z,0.50
2019-03-16T00:02:34.173Z,0.60
2019-03-16T00:04:37.867Z,0.60
2019-03-16T00:06:41.527Z,0.50
2019-03-16T00:08:45.202Z,0.57
2019-03-16T00:10:48.958Z,0.50
2019-03-16T00:12:52.641Z,0.70
2019-03-16T00:14:56.300Z,0.63
2019-03-16T00:17:00.179Z,0.50
2019-03-16T00:19:03.850Z,0.60
2019-03-16T00:21:07.528Z,0.50
2019-03-16T00:23:11.279Z,0.70
2019-03-16T00:25:14.935Z,0.60
2019-03-16T00:27:18.600Z,0.60
2019-03-16T00:29:22.282Z,0.50
2019-03-16T00:31:25.944Z,0.57
2019-03-16T00:33:29.632Z,0.50
2019-03-16T00:35:33.387Z,0.60
2019-03-16T00:37:37.067Z,0.60
2019-03-16T00:39:40.744Z,0.50
2019-03-16T00:41:44.405Z,0.60
2019-03-16T00:43:48.081Z,0.50
2019-03-16T00:45:51.798Z,0.50
2019-03-16T00:47:55.461Z,0.50
2019-03-16T00:49:59.146Z,0.50
2019-03-16T00:52:02.802Z,0.50
2019-03-16T00:54:06.491Z,0.50
2019-03-16T00:56:10.149Z,0.57
2019-03-16T00:58:13.835Z,0.60
2019-03-16T01:00:17.824Z,0.70
2019-03-16T01:02:27.076Z,0.60
2019-03-16T01:04:26.900Z,0.57
2019-03-16T01:06:30.622Z,0.57
2019-03-16T01:08:34.278Z,0.63
2019-03-16T01:10:37.959Z,0.70
2019-03-16T01:12:41.631Z,0.60
2019-03-16T01:14:45.302Z,0.60
2019-03-16T01:16:48.958Z,0.60
2019-03-16T01:18:52.638Z,0.60
2019-03-16T01:20:56.335Z,0.60
2019-03-16T01:23:00.126Z,0.57
2019-03-16T01:25:04.851Z,0.60
2019-03-16T01:27:08.517Z,0.60
2019-03-16T01:29:12.166Z,0.50
2019-03-16T01:31:15.862Z,0.60
2019-03-16T01:33:19.520Z,0.60
2019-03-16T01:35:23.186Z,0.70
2019-03-16T01:37:26.870Z,0.50
2019-03-16T01:39:30.529Z,0.60
2019-03-16T01:41:34.206Z,0.53
2019-03-16T01:43:37.863Z,0.60
2019-03-16T01:45:41.657Z,0.60
2019-03-16T01:47:45.281Z,0.60
2019-03-16T01:49:48.943Z,0.50
2019-03-16T01:51:52.706Z,0.70
2019-03-16T01:53:56.390Z,0.50
2019-03-16T01:56:00.045Z,0.60
2019-03-16T01:58:03.742Z,0.70
2019-03-16T02:00:12.544Z,0.80
2019-03-16T02:02:16.280Z,0.70
2019-03-16T02:04:20.020Z,0.60
2019-03-16T02:06:23.728Z,0.70
2019-03-16T02:08:27.450Z,0.60
2019-03-16T02:10:31.114Z,0.60
2019-03-16T02:12:34.872Z,0.70
2019-03-16T02:14:38.590Z,0.57
2019-03-16T02:16:42.281Z,0.67
2019-03-16T02:18:45.947Z,0.60
2019-03-16T02:20:49.607Z,0.50
2019-03-16T02:22:53.285Z,0.57
2019-03-16T02:24:56.954Z,0.57
2019-03-16T02:27:00.640Z,0.50
2019-03-16T02:29:04.304Z,0.57
2019-03-16T02:31:07.980Z,0.50
2019-03-16T02:33:13.793Z,0.60
2019-03-16T02:35:17.254Z,0.63
2019-03-16T02:37:21.067Z,0.67
2019-03-16T02:39:24.863Z,0.40
2019-03-16T02:41:28.522Z,0.60
2019-03-16T02:43:32.243Z,0.70
2019-03-16T02:45:35.923Z,0.60
2019-03-16T02:47:39.606Z,0.70
2019-03-16T02:49:43.478Z,0.60
2019-03-16T02:51:47.169Z,0.50
2019-03-16T02:53:50.884Z,0.60
2019-03-16T02:55:54.536Z,0.50
2019-03-16T02:57:58.215Z,0.60
2019-03-16T03:00:01.918Z,0.60
2019-03-16T03:02:05.619Z,0.50
2019-03-16T03:04:09.310Z,0.60
2019-03-16T03:06:13.081Z,0.53
2019-03-16T03:08:16.751Z,0.60
2019-03-16T03:10:20.435Z,0.60
2019-03-16T03:12:24.086Z,0.60
2019-03-16T03:14:27.766Z,0.70
2019-03-16T03:16:31.426Z,0.73
2019-03-16T03:18:35.086Z,0.60
2019-03-16T03:20:38.766Z,0.70
2019-03-16T03:22:42.504Z,0.70
2019-03-16T03:24:46.213Z,0.60
2019-03-16T03:26:49.873Z,0.50
2019-03-16T03:28:53.557Z,0.50
2019-03-16T03:30:57.400Z,0.60
2019-03-16T03:33:01.061Z,0.60
2019-03-16T03:35:06.131Z,0.70
2019-03-16T03:37:09.822Z,0.70
2019-03-16T03:39:13.483Z,0.60
2019-03-16T03:41:17.164Z,0.50
2019-03-16T03:43:20.835Z,0.53
2019-03-16T03:45:24.542Z,0.70
2019-03-16T03:47:28.205Z,0.60
2019-03-16T03:49:31.864Z,0.70
2019-03-16T03:51:35.736Z,0.70
2019-03-16T03:53:41.134Z,0.60
2019-03-16T03:55:44.799Z,0.50
2019-03-16T03:57:48.672Z,0.70
2019-03-16T03:59:52.634Z,0.70
2019-03-16T04:01:56.312Z,0.70
2019-03-16T04:04:14.406Z,0.60
2019-03-16T04:06:05.384Z,0.60
2019-03-16T04:08:09.042Z,0.53
2019-03-16T04:10:13.112Z,0.70
2019-03-16T04:12:16.789Z,0.60
2019-03-16T04:14:20.452Z,0.50
2019-03-16T04:16:24.283Z,0.80
2019-03-16T04:18:27.959Z,0.60
2019-03-16T04:20:31.620Z,0.60
2019-03-16T04:22:35.309Z,0.60
2019-03-16T04:24:38.989Z,0.60
2019-03-16T04:26:42.655Z,0.60
2019-03-16T04:28:46.360Z,0.60
2019-03-16T04:30:50.136Z,0.70
2019-03-16T04:32:53.826Z,0.70
2019-03-16T04:34:57.530Z,0.70
2019-03-16T04:37:01.207Z,0.70
2019-03-16T04:39:06.599Z,0.73
2019-03-16T04:41:10.267Z,0.70
2019-03-16T04:43:13.962Z,0.60
2019-03-16T04:45:18.383Z,0.77
2019-03-16T04:47:22.077Z,0.63
2019-03-16T04:49:25.780Z,0.60
2019-03-16T04:51:29.425Z,0.70
2019-03-16T04:53:33.113Z,0.60
2019-03-16T04:55:36.804Z,0.87
2019-03-16T04:57:40.496Z,0.67
2019-03-16T04:59:44.412Z,0.63
2019-03-16T05:01:48.067Z,0.70
2019-03-16T05:03:51.750Z,0.73
2019-03-16T05:05:55.406Z,0.70
2019-03-16T05:07:59.072Z,0.90
2019-03-16T05:10:02.749Z,0.90
2019-03-16T05:12:06.510Z,0.73
2019-03-16T05:14:10.312Z,0.90
2019-03-16T05:16:13.959Z,0.90
2019-03-16T05:18:17.664Z,0.77
2019-03-16T05:20:21.384Z,0.60
2019-03-16T05:22:25.051Z,0.70
2019-03-16T05:24:28.742Z,0.80
2019-03-16T05:26:32.557Z,0.90
2019-03-16T05:28:36.209Z,0.70
2019-03-16T05:30:39.895Z,0.60
2019-03-16T05:32:43.554Z,0.60
2019-03-16T05:34:56.425Z,0.60
2019-03-16T05:36:55.907Z,0.60
2019-03-16T05:38:58.012Z,0.80
2019-03-16T05:41:01.691Z,0.70
2019-03-16T05:43:05.347Z,0.90
2019-03-16T05:45:09.611Z,0.70
2019-03-16T05:47:13.271Z,0.60
2019-03-16T05:49:17.041Z,0.70
2019-03-16T05:51:20.746Z,0.80
2019-03-16T05:53:24.402Z,0.70
2019-03-16T05:55:28.082Z,0.80
2019-03-16T05:57:31.743Z,0.80
2019-03-16T05:59:35.486Z,0.67
2019-03-16T06:01:39.165Z,0.70
2019-03-16T06:03:42.824Z,0.70
2019-03-16T06:05:46.510Z,0.70
2019-03-16T06:07:51.052Z,0.73
2019-03-16T06:09:54.720Z,0.60
2019-03-16T06:11:58.407Z,0.80
2019-03-16T06:14:02.193Z,0.87
2019-03-16T06:16:05.867Z,0.90
2019-03-16T06:18:11.976Z,0.90
2019-03-16T06:20:15.221Z,0.70
2019-03-16T06:22:18.911Z,0.87
2019-03-16T06:24:22.561Z,0.90
2019-03-16T06:26:26.272Z,0.90
2019-03-16T06:28:29.923Z,0.90
2019-03-16T06:30:33.577Z,0.80
2019-03-16T06:32:37.407Z,0.70
2019-03-16T06:34:41.071Z,0.80
2019-03-16T06:36:44.752Z,0.80
2019-03-16T06:38:48.403Z,0.90
2019-03-16T06:40:52.365Z,0.90
2019-03-16T06:42:56.038Z,0.80
2019-03-16T06:44:59.702Z,0.80
2019-03-16T06:47:03.394Z,0.90
2019-03-16T06:49:07.051Z,0.90
2019-03-16T06:51:10.707Z,1.00
2019-03-16T06:53:14.392Z,0.77
2019-03-16T06:55:18.046Z,1.00
2019-03-16T06:57:21.704Z,0.80
2019-03-16T06:59:25.489Z,1.17
2019-03-16T07:01:29.142Z,1.03
2019-03-16T07:03:33.031Z,1.00
2019-03-16T07:05:38.802Z,1.20
2019-03-16T07:07:42.080Z,1.10
2019-03-16T07:09:45.778Z,1.07
2019-03-16T07:11:49.445Z,1.07
2019-03-16T07:13:53.134Z,1.00
2019-03-16T07:15:56.796Z,0.90
2019-03-16T07:18:00.458Z,1.20
2019-03-16T07:20:05.854Z,0.80
2019-03-16T07:22:09.562Z,1.17
2019-03-16T07:24:13.365Z,1.37
2019-03-16T07:26:17.036Z,1.30
2019-03-16T07:28:20.702Z,1.00
2019-03-16T07:30:24.378Z,1.40
2019-03-16T07:32:28.032Z,1.23
2019-03-16T07:34:31.838Z,1.00
2019-03-16T07:36:36.187Z,1.20
2019-03-16T07:38:40.157Z,1.43
2019-03-16T07:40:43.891Z,1.30
2019-03-16T07:42:47.560Z,1.93
2019-03-16T07:44:51.232Z,0.97
2019-03-16T07:46:54.991Z,1.30
2019-03-16T07:48:58.631Z,1.17
2019-03-16T07:51:02.319Z,1.00
2019-03-16T07:53:05.987Z,1.30
2019-03-16T07:55:10.171Z,1.00
2019-03-16T07:57:13.822Z,1.30
2019-03-16T07:59:17.485Z,1.00
2019-03-16T08:01:21.233Z,0.90
2019-03-16T08:03:24.994Z,1.10
2019-03-16T08:05:28.743Z,1.07
2019-03-16T08:07:32.404Z,1.17
2019-03-16T08:09:36.074Z,1.00
2019-03-16T08:11:39.787Z,1.10
2019-03-16T08:13:43.445Z,1.53
2019-03-16T08:15:47.136Z,1.40
2019-03-16T08:17:50.802Z,1.10
2019-03-16T08:19:54.458Z,1.30
2019-03-16T08:21:58.137Z,1.00
2019-03-16T08:24:01.807Z,1.23
2019-03-16T08:26:05.490Z,1.30
2019-03-16T08:28:09.172Z,1.57
2019-03-16T08:30:12.923Z,1.70
2019-03-16T08:32:16.707Z,1.20
2019-03-16T08:34:20.378Z,1.37
2019-03-16T08:36:24.075Z,1.67
2019-03-16T08:38:27.726Z,1.33
2019-03-16T08:40:31.531Z,1.70
2019-03-16T08:42:35.239Z,1.70
2019-03-16T08:44:39.026Z,1.93
2019-03-16T08:46:42.768Z,1.20
2019-03-16T08:48:46.581Z,1.47
2019-03-16T08:50:50.238Z,1.40
2019-03-16T08:52:54.065Z,1.27
2019-03-16T08:54:57.774Z,1.70
2019-03-16T08:57:01.446Z,1.60
2019-03-16T08:59:05.554Z,1.37
2019-03-16T09:01:09.224Z,1.60
2019-03-16T09:03:13.049Z,1.30
2019-03-16T09:05:16.724Z,1.10
2019-03-16T09:07:20.406Z,1.30
2019-03-16T09:09:24.097Z,1.40
2019-03-16T09:11:27.759Z,1.67
2019-03-16T09:13:31.444Z,1.30
2019-03-16T09:15:35.121Z,1.40
2019-03-16T09:17:38.782Z,1.23
2019-03-16T09:19:42.470Z,1.10
2019-03-16T09:21:46.143Z,1.40
2019-03-16T09:23:49.869Z,1.60
2019-03-16T09:25:54.088Z,1.50
2019-03-16T09:27:57.862Z,2.93
2019-03-16T09:30:01.557Z,5.30
2019-03-16T09:32:05.244Z,4.30
2019-03-16T09:34:08.916Z,1.50
2019-03-16T09:36:12.601Z,3.10
2019-03-16T09:38:16.319Z,1.10
2019-03-16T09:40:20.006Z,3.90
2019-03-16T09:42:23.878Z,1.80
2019-03-16T09:44:27.551Z,1.40
2019-03-16T09:46:31.257Z,2.70
2019-03-16T09:48:34.916Z,1.10
2019-03-16T09:50:38.600Z,1.30
2019-03-16T09:52:42.335Z,1.20
2019-03-16T09:54:45.997Z,4.83
2019-03-16T09:57:00.665Z,1.20
2019-03-16T09:58:55.162Z,1.10
2019-03-16T10:00:58.863Z,1.53
2019-03-16T10:03:02.563Z,1.20
2019-03-16T10:05:06.325Z,1.83
2019-03-16T10:07:10.023Z,1.50
2019-03-16T10:09:13.744Z,1.10
2019-03-16T10:11:17.444Z,1.03
2019-03-16T10:13:21.088Z,1.23
2019-03-16T10:15:24.768Z,1.30
2019-03-16T10:17:28.567Z,1.40
2019-03-16T10:19:32.221Z,1.20
2019-03-16T10:21:35.902Z,1.07
2019-03-16T10:23:39.636Z,1.20
2019-03-16T10:25:43.297Z,0.97
2019-03-16T10:27:46.982Z,1.30
2019-03-16T10:29:50.669Z,1.73
2019-03-16T10:31:54.358Z,1.23
2019-03-16T10:33:58.025Z,1.47
2019-03-16T10:36:01.700Z,1.50
2019-03-16T10:38:05.389Z,1.10
2019-03-16T10:40:12.146Z,1.03
2019-03-16T10:42:15.869Z,1.03
2019-03-16T10:44:19.568Z,1.30
2019-03-16T10:46:23.227Z,0.93
2019-03-16T10:48:26.956Z,0.90
2019-03-16T10:50:30.626Z,1.60
2019-03-16T10:52:34.529Z,1.37
2019-03-16T10:54:38.195Z,1.50
2019-03-16T10:56:41.850Z,1.20
2019-03-16T10:58:56.002Z,1.43
2019-03-16T11:00:51.134Z,1.20
2019-03-16T11:02:55.736Z,1.17
2019-03-16T11:04:59.857Z,0.97
2019-03-16T11:07:04.999Z,1.20
2019-03-16T11:09:11.558Z,1.10
2019-03-16T11:11:17.180Z,1.10
2019-03-16T11:13:22.691Z,1.00
2019-03-16T11:15:28.885Z,0.87
2019-03-16T11:17:33.394Z,1.10
2019-03-16T11:19:39.390Z,1.10
2019-03-16T11:21:45.180Z,0.80
2019-03-16T11:23:50.931Z,0.90
2019-03-16T11:25:57.997Z,0.77
2019-03-16T11:28:04.285Z,1.00
2019-03-16T11:30:14.442Z,1.00
2019-03-16T11:32:20.606Z,1.03
2019-03-16T11:34:29.122Z,1.00
2019-03-16T11:36:35.860Z,0.93
2019-03-16T11:38:40.874Z,1.07
2019-03-16T11:40:47.637Z,0.90
2019-03-16T11:42:53.299Z,1.20
2019-03-16T11:44:59.542Z,1.13
2019-03-16T11:47:03.954Z,1.10
2019-03-16T11:49:09.809Z,1.77
2019-03-16T11:51:15.130Z,1.10
2019-03-16T11:53:18.796Z,1.00
2019-03-16T11:55:22.471Z,1.17
2019-03-16T11:57:26.141Z,1.50
2019-03-16T11:59:29.811Z,1.27
2019-03-16T12:01:33.467Z,1.27
2019-03-16T12:03:37.128Z,1.10
2019-03-16T12:05:40.811Z,1.30
2019-03-16T12:07:44.474Z,1.20
2019-03-16T12:09:48.187Z,1.20
2019-03-16T12:11:51.923Z,1.27
2019-03-16T12:13:55.586Z,0.87
2019-03-16T12:15:59.480Z,0.93
2019-03-16T12:18:03.145Z,0.97
2019-03-16T12:20:09.635Z,1.10
2019-03-16T12:22:13.291Z,1.20
2019-03-16T12:24:16.949Z,1.30
2019-03-16T12:26:20.634Z,0.80
2019-03-16T12:28:24.394Z,1.10
2019-03-16T12:30:28.175Z,1.37
2019-03-16T12:32:31.918Z,1.40
2019-03-16T12:34:35.592Z,1.53
2019-03-16T12:36:39.330Z,1.60
2019-03-16T12:38:43.096Z,1.00
2019-03-16T12:40:46.811Z,1.00
2019-03-16T12:42:50.492Z,1.10
2019-03-16T12:44:54.371Z,1.20
2019-03-16T12:46:58.056Z,0.90
2019-03-16T12:49:01.731Z,0.90
2019-03-16T12:51:05.611Z,1.07
2019-03-16T12:53:09.283Z,1.00
2019-03-16T12:55:13.433Z,0.93
2019-03-16T12:57:17.131Z,0.93
2019-03-16T12:59:20.804Z,0.87
2019-03-16T13:01:24.518Z,1.30
2019-03-16T13:03:28.182Z,1.10
2019-03-16T13:05:31.835Z,1.00
2019-03-16T13:07:35.544Z,1.10
2019-03-16T13:09:42.152Z,0.90
2019-03-16T13:11:44.683Z,1.00
2019-03-16T13:13:48.417Z,1.10
2019-03-16T13:15:52.087Z,0.90
2019-03-16T13:17:55.835Z,1.00
2019-03-16T13:19:59.643Z,0.83
2019-03-16T13:22:03.394Z,1.00
2019-03-16T13:24:07.062Z,0.93
2019-03-16T13:26:10.792Z,1.00
2019-03-16T13:28:14.570Z,1.00
2019-03-16T13:30:22.522Z,1.00
2019-03-16T13:32:26.355Z,1.07
2019-03-16T13:34:30.124Z,1.60
2019-03-16T13:36:33.790Z,1.03
2019-03-16T13:38:37.546Z,1.50
2019-03-16T13:40:41.201Z,0.90
2019-03-16T13:42:45.045Z,0.80
2019-03-16T13:44:48.756Z,0.90
2019-03-16T13:46:52.483Z,0.90
2019-03-16T13:48:56.158Z,1.00
2019-03-16T13:50:59.834Z,1.10
2019-03-16T13:53:03.531Z,1.20
2019-03-16T13:55:08.086Z,1.10
2019-03-16T13:57:11.786Z,1.47
2019-03-16T13:59:15.478Z,1.00
2019-03-16T14:01:19.410Z,1.10
2019-03-16T14:03:23.101Z,0.87
2019-03-16T14:05:26.753Z,0.90
2019-03-16T14:07:30.432Z,1.00
2019-03-16T14:09:34.102Z,0.83
2019-03-16T14:11:38.087Z,0.90
2019-03-16T14:13:41.760Z,0.90
2019-03-16T14:15:45.798Z,0.90
2019-03-16T14:17:49.481Z,1.10
2019-03-16T14:19:53.350Z,0.83
2019-03-16T14:21:56.999Z,0.80
2019-03-16T14:24:00.849Z,1.03
2019-03-16T14:26:04.555Z,0.80
2019-03-16T14:28:08.271Z,1.00
2019-03-16T14:30:29.453Z,0.97
2019-03-16T14:32:24.204Z,0.80
2019-03-16T14:34:27.882Z,0.90
2019-03-16T14:36:31.549Z,0.90
2019-03-16T14:38:35.219Z,0.80
2019-03-16T14:40:38.919Z,0.80
2019-03-16T14:42:42.587Z,0.90
2019-03-16T14:44:46.261Z,0.80
2019-03-16T14:46:49.929Z,1.00
2019-03-16T14:48:53.588Z,1.37
2019-03-16T14:50:57.283Z,1.17
2019-03-16T14:53:00.937Z,1.10
2019-03-16T14:55:05.218Z,1.10
2019-03-16T14:57:08.956Z,0.93
2019-03-16T14:59:12.623Z,1.33
2019-03-16T15:01:16.298Z,0.90
2019-03-16T15:03:19.962Z,0.87
2019-03-16T15:05:23.750Z,0.70
2019-03-16T15:07:27.422Z,0.90
2019-03-16T15:09:31.090Z,0.90
2019-03-16T15:11:35.055Z,1.00
2019-03-16T15:13:38.719Z,0.90
2019-03-16T15:15:42.391Z,0.80
2019-03-16T15:17:46.099Z,1.00
2019-03-16T15:19:49.824Z,1.00
2019-03-16T15:21:53.506Z,1.00
2019-03-16T15:23:57.167Z,0.80
2019-03-16T15:26:00.861Z,0.80
2019-03-16T15:28:04.525Z,0.63
2019-03-16T15:30:14.155Z,0.70
2019-03-16T15:32:17.854Z,0.73
2019-03-16T15:34:21.516Z,0.90
2019-03-16T15:36:25.198Z,0.80
2019-03-16T15:38:30.846Z,0.80
2019-03-16T15:40:34.253Z,0.77
2019-03-16T15:42:37.991Z,1.10
2019-03-16T15:44:41.670Z,0.87
2019-03-16T15:46:45.353Z,1.07
2019-03-16T15:48:49.022Z,1.00
2019-03-16T15:50:52.689Z,1.10
2019-03-16T15:52:56.363Z,1.00
2019-03-16T15:55:00.047Z,1.23
2019-03-16T15:57:03.706Z,1.60
2019-03-16T15:59:07.418Z,1.10
2019-03-16T16:01:11.202Z,0.90
2019-03-16T16:03:14.902Z,0.90
2019-03-16T16:05:18.557Z,1.10
2019-03-16T16:07:22.263Z,0.90
2019-03-16T16:09:26.030Z,0.70
2019-03-16T16:11:29.837Z,0.90
2019-03-16T16:13:33.555Z,0.80
2019-03-16T16:15:37.255Z,1.03
2019-03-16T16:17:40.935Z,1.10
2019-03-16T16:19:44.591Z,1.00
2019-03-16T16:21:48.248Z,0.90
2019-03-16T16:23:51.955Z,1.60
2019-03-16T16:25:55.775Z,1.23
2019-03-16T16:27:59.464Z,1.30
2019-03-16T16:30:03.436Z,1.10
2019-03-16T16:32:07.138Z,0.90
2019-03-16T16:34:10.947Z,1.10
2019-03-16T16:36:14.592Z,1.10
2019-03-16T16:38:18.362Z,1.10
2019-03-16T16:40:22.315Z,1.00
2019-03-16T16:42:26.057Z,1.03
2019-03-16T16:44:29.747Z,1.13
2019-03-16T16:46:33.398Z,1.00
2019-03-16T16:48:37.089Z,0.80
2019-03-16T16:50:40.765Z,0.83
2019-03-16T16:52:44.459Z,0.90
2019-03-16T16:54:48.183Z,1.00
2019-03-16T16:56:51.990Z,0.80
2019-03-16T16:58:55.702Z,1.20
2019-03-16T17:00:59.379Z,1.00
2019-03-16T17:03:03.045Z,1.00
2019-03-16T17:05:07.035Z,1.17
2019-03-16T17:07:10.706Z,0.90
2019-03-16T17:09:14.398Z,1.00
2019-03-16T17:11:18.093Z,1.40
2019-03-16T17:13:21.786Z,0.90
2019-03-16T17:15:25.877Z,0.90
2019-03-16T17:17:35.297Z,1.10
2019-03-16T17:19:34.957Z,1.00
2019-03-16T17:21:38.685Z,1.17
2019-03-16T17:23:42.366Z,0.90
2019-03-16T17:25:46.062Z,1.30
2019-03-16T17:27:49.735Z,1.30
2019-03-16T17:29:53.381Z,1.40
2019-03-16T17:31:57.063Z,1.40
2019-03-16T17:34:00.718Z,1.87
2019-03-16T17:36:04.420Z,1.70
2019-03-16T17:38:08.398Z,2.53
2019-03-16T17:40:13.822Z,2.87
2019-03-16T17:42:17.502Z,4.80
2019-03-16T17:44:21.181Z,7.67
2019-03-16T17:46:24.867Z,17.97
2019-03-16T17:48:29.760Z,19.87
2019-03-16T17:50:33.703Z,30.03
2019-03-16T17:52:37.407Z,20.83
2019-03-16T17:54:41.065Z,11.90
2019-03-16T17:56:44.767Z,11.20
2019-03-16T17:58:48.651Z,21.03
2019-03-16T18:00:52.348Z,13.50
2019-03-16T18:02:56.028Z,5.57
2019-03-16T18:04:59.691Z,3.50
2019-03-16T18:07:03.387Z,2.00
2019-03-16T18:09:07.469Z,4.40
2019-03-16T18:11:11.131Z,5.67
2019-03-16T18:13:14.798Z,4.00
2019-03-16T18:15:19.678Z,3.03
2019-03-16T18:17:23.362Z,2.60
2019-03-16T18:19:27.036Z,2.00
2019-03-16T18:21:30.761Z,2.10
2019-03-16T18:23:34.455Z,5.87
2019-03-16T18:25:38.111Z,5.30
2019-03-16T18:27:42.136Z,3.87
2019-03-16T18:29:45.798Z,5.57
2019-03-16T18:31:49.452Z,5.50
2019-03-16T18:33:53.134Z,5.87
2019-03-16T18:35:56.785Z,5.27
2019-03-16T18:38:00.473Z,6.13
2019-03-16T18:40:06.334Z,6.77
2019-03-16T18:42:09.994Z,6.40
2019-03-16T18:44:13.690Z,7.20
2019-03-16T18:46:17.359Z,6.77
2019-03-16T18:48:21.057Z,8.00
2019-03-16T18:50:24.727Z,6.10
2019-03-16T18:52:28.468Z,7.10
2019-03-16T18:54:32.159Z,3.87
2019-03-16T18:56:35.843Z,3.63
2019-03-16T18:58:39.557Z,4.57
2019-03-16T19:00:43.306Z,4.27
2019-03-16T19:02:47.089Z,3.73
2019-03-16T19:04:50.841Z,3.47
2019-03-16T19:06:54.553Z,2.67
2019-03-16T19:08:58.452Z,2.00
2019-03-16T19:11:02.107Z,1.87
2019-03-16T19:13:05.788Z,1.77
2019-03-16T19:15:14.957Z,2.57
2019-03-16T19:17:18.725Z,2.50
2019-03-16T19:19:22.466Z,2.93
2019-03-16T19:21:26.145Z,1.97
2019-03-16T19:23:29.803Z,2.60
2019-03-16T19:25:33.504Z,2.83
2019-03-16T19:27:37.154Z,2.67
2019-03-16T19:29:40.917Z,4.17
2019-03-16T19:31:44.609Z,4.47
2019-03-16T19:33:48.338Z,12.10
2019-03-16T19:35:52.064Z,16.07
2019-03-16T19:37:55.746Z,7.03
2019-03-16T19:39:59.411Z,3.00
2019-03-16T19:42:03.122Z,5.30
2019-03-16T19:44:06.830Z,10.50
2019-03-16T19:46:10.530Z,12.53
2019-03-16T19:48:14.196Z,7.67
2019-03-16T19:50:18.094Z,4.93
2019-03-16T19:52:21.794Z,5.57
2019-03-16T19:54:25.439Z,3.60
2019-03-16T19:56:29.238Z,3.87
2019-03-16T19:58:32.901Z,3.70
2019-03-16T20:00:36.663Z,3.50
2019-03-16T20:02:47.295Z,2.87
2019-03-16T20:04:45.959Z,2.53
2019-03-16T20:06:49.668Z,2.30
2019-03-16T20:08:53.404Z,2.30
2019-03-16T20:11:06.029Z,2.80
2019-03-16T20:13:02.494Z,3.17
2019-03-16T20:15:08.856Z,4.40
2019-03-16T20:17:12.536Z,3.97
2019-03-16T20:19:16.318Z,7.73
2019-03-16T20:21:19.976Z,9.00
2019-03-16T20:23:23.738Z,9.47
2019-03-16T20:25:27.429Z,6.27
2019-03-16T20:27:31.108Z,4.90
2019-03-16T20:29:34.789Z,3.37
2019-03-16T20:31:46.844Z,2.20
2019-03-16T20:33:43.870Z,2.10
2019-03-16T20:35:47.551Z,4.43
2019-03-16T20:37:51.252Z,2.87
2019-03-16T20:39:54.941Z,3.47
2019-03-16T20:41:58.633Z,4.80
2019-03-16T20:44:02.317Z,3.53
2019-03-16T20:46:06.054Z,5.40
2019-03-16T20:48:09.717Z,8.00
2019-03-16T20:50:19.806Z,11.57
2019-03-16T20:52:23.484Z,14.10
2019-03-16T20:54:27.161Z,15.37
2019-03-16T20:56:30.890Z,17.23
2019-03-16T20:58:34.586Z,20.20
2019-03-16T21:00:38.350Z,14.67
2019-03-16T21:02:42.042Z,11.50
2019-03-16T21:04:45.754Z,7.77
2019-03-16T21:06:49.444Z,7.70
2019-03-16T21:09:02.565Z,4.70
2019-03-16T21:11:00.707Z,2.87
2019-03-16T21:13:05.895Z,2.73
2019-03-16T21:15:16.663Z,2.40
2019-03-16T21:17:21.766Z,2.07
2019-03-16T21:19:29.140Z,2.30
2019-03-16T21:21:36.055Z,2.70
2019-03-16T21:23:39.707Z,7.70
2019-03-16T21:25:43.399Z,22.50
2019-03-16T21:27:47.071Z,12.33
2019-03-16T21:29:50.873Z,9.17
2019-03-16T21:31:54.528Z,6.50
2019-03-16T21:33:58.206Z,8.70
2019-03-16T21:36:02.046Z,9.43
2019-03-16T21:38:05.710Z,9.20
2019-03-16T21:40:12.303Z,6.67
2019-03-16T21:42:15.959Z,5.10
2019-03-16T21:44:19.631Z,4.17
2019-03-16T21:46:23.317Z,3.37
2019-03-16T21:48:27.250Z,4.67
2019-03-16T21:50:31.006Z,4.40
2019-03-16T21:52:34.668Z,3.90
2019-03-16T21:54:38.347Z,4.00
2019-03-16T21:56:42.090Z,3.40
2019-03-16T21:58:46.768Z,3.80
2019-03-16T22:00:50.665Z,4.20
2019-03-16T22:02:54.431Z,3.20
2019-03-16T22:04:58.111Z,2.70
2019-03-16T22:07:01.794Z,2.93
2019-03-16T22:09:06.862Z,4.37
2019-03-16T22:11:10.547Z,5.20
2019-03-16T22:13:14.403Z,4.53
2019-03-16T22:15:18.087Z,7.77
2019-03-16T22:17:21.831Z,5.30
2019-03-16T22:19:25.503Z,5.73
2019-03-16T22:21:34.345Z,5.40
2019-03-16T22:23:40.622Z,6.70
2019-03-16T22:25:44.686Z,6.67
2019-03-16T22:27:51.417Z,6.57
2019-03-16T22:29:53.839Z,7.13
2019-03-16T22:31:57.592Z,6.47
2019-03-16T22:34:03.190Z,6.30
2019-03-16T22:36:07.007Z,6.70
2019-03-16T22:38:11.159Z,5.73
2019-03-16T22:40:15.377Z,5.90
2019-03-16T22:42:19.160Z,5.57
2019-03-16T22:44:22.842Z,4.50
2019-03-16T22:46:26.539Z,4.90
2019-03-16T22:48:31.591Z,5.23
2019-03-16T22:50:35.350Z,5.50
2019-03-16T22:52:39.088Z,5.90
2019-03-16T22:54:42.892Z,6.30
2019-03-16T22:56:46.543Z,7.30
2019-03-16T22:58:50.275Z,6.20
2019-03-16T23:00:56.379Z,6.23
2019-03-16T23:03:04.816Z,5.87
2019-03-16T23:05:10.415Z,6.63
2019-03-16T23:07:14.082Z,5.30
2019-03-16T23:09:17.826Z,5.60
2019-03-16T23:11:21.490Z,4.73
2019-03-16T23:13:25.179Z,3.77
2019-03-16T23:15:31.591Z,4.17
2019-03-16T23:17:36.656Z,3.67
2019-03-16T23:19:43.253Z,3.70
2019-03-16T23:21:48.712Z,4.03
2019-03-16T23:23:55.187Z,4.43
2019-03-16T23:26:02.968Z,2.80
2019-03-16T23:28:07.150Z,2.57
2019-03-16T23:30:12.143Z,1.87
2019-03-16T23:32:15.807Z,2.37
2019-03-16T23:34:19.683Z,2.00
2019-03-16T23:36:23.444Z,2.27
2019-03-16T23:38:27.111Z,2.57
2019-03-16T23:40:30.887Z,2.27
2019-03-16T23:42:34.547Z,2.27
2019-03-16T23:44:38.254Z,2.00
2019-03-16T23:46:41.963Z,2.17
2019-03-16T23:48:45.637Z,2.27
2019-03-16T23:50:49.322Z,2.23
2019-03-16T23:52:52.982Z,2.23
2019-03-16T23:54:56.671Z,2.40
2019-03-16T23:57:00.353Z,2.40
2019-03-16T23:59:04.003Z,2.40
